Time;durP1;ratioP1;P1;durP2;ratioP2;P2;SDS_P1;SDS_P2;PMS_P1;PMS_P2;Temp;Humidity;BMP_temperature;BMP_pressure;BME280_temperature;BME280_humidity;BME280_pressure;Samples;Min_cycle;Max_cycle;Signal;HPM_P1;HPM_P2
2022/06/21 00:00:50;;;;;;;2.63;1.00;;;;;;;;;;5010024;28;20063;-57
2022/06/21 00:06:45;;;;;;;3.05;1.38;;;;;;;;;;5013888;28;20076;-58
2022/06/21 00:09:27;;;;;;;5.20;1.50;;;;;;;;;;5014281;28;20108;-58
2022/06/21 00:12:14;;;;;;;3.25;1.60;;;;;;;;;;5014501;28;20038;-58
2022/06/21 00:14:57;;;;;;;2.80;1.60;;;;;;;;;;4997354;28;20420;-58
2022/06/21 00:17:25;;;;;;;3.67;1.42;;;;;;;;;;5043415;28;20033;-58
2022/06/21 00:22:50;;;;;;;3.25;1.50;;;;;;;;;;5021118;28;20040;-58
2022/06/21 00:25:33;;;;;;;2.58;1.40;;;;;;;;;;5072683;28;20430;-57
2022/06/21 00:28:17;;;;;;;3.08;1.60;;;;;;;;;;5075620;28;20025;-58
2022/06/21 00:31:01;;;;;;;4.47;1.48;;;;;;;;;;5074779;28;20481;-57
2022/06/21 00:33:54;;;;;;;6.97;1.60;;;;;;;;;;5075422;28;20020;-58
2022/06/21 00:36:31;;;;;;;2.97;1.33;;;;;;;;;;5036281;28;20037;-57
2022/06/21 00:42:36;;;;;;;2.92;1.08;;;;;;;;;;5032284;28;20037;-57
2022/06/21 00:45:24;;;;;;;3.35;1.48;;;;;;;;;;5033994;28;20037;-58
2022/06/21 00:47:58;;;;;;;3.33;1.20;;;;;;;;;;5037393;28;20379;-57
2022/06/21 00:50:44;;;;;;;2.45;1.10;;;;;;;;;;5021631;28;20037;-57
2022/06/21 00:57:01;;;;;;;;;;;;;;;;;;;;;
2022/06/21 00:59:53;;;;;;;1.55;0.90;;;;;;;;;;5053225;28;20442;-58
2022/06/21 01:02:37;;;;;;;1.95;1.13;;;;;;;;;;5077096;28;20035;-57
2022/06/21 01:08:14;;;;;;;1.58;0.93;;;;;;;;;;5078531;28;20032;-58
2022/06/21 01:11:30;;;;;;;1.75;1.02;;;;;;;;;;5077228;28;20119;-58
2022/06/21 01:14:18;;;;;;;1.60;0.90;;;;;;;;;;5056561;28;20029;-57
2022/06/21 01:23:03;;;;;;;1.55;1.10;;;;;;;;;;5074829;28;20040;-58
2022/06/21 01:28:48;;;;;;;;;;;;;;;;;;;;;
2022/06/21 01:31:35;;;;;;;2.53;1.30;;;;;;;;;;5076160;28;20117;-57
2022/06/21 01:34:12;;;;;;;2.20;1.35;;;;;;;;;;5069805;28;20454;-57
2022/06/21 01:36:52;;;;;;;2.88;1.20;;;;;;;;;;5078477;28;20111;-57
2022/06/21 01:46:26;;;;;;;7.03;1.05;;;;;;;;;;5055799;28;20056;-57
2022/06/21 01:49:01;;;;;;;1.63;0.88;;;;;;;;;;5055256;28;20116;-57
2022/06/21 01:51:35;;;;;;;1.70;0.80;;;;;;;;;;5055916;28;20055;-57
2022/06/21 01:54:15;;;;;;;2.85;1.25;;;;;;;;;;5055143;28;20021;-57
2022/06/21 01:56:56;;;;;;;2.42;1.52;;;;;;;;;;5062210;28;20370;-57
2022/06/21 01:59:25;;;;;;;1.95;1.75;;;;;;;;;;5075968;28;20048;-57
2022/06/21 02:02:04;;;;;;;1.75;1.10;;;;;;;;;;5077581;28;20453;-57
2022/06/21 02:04:45;;;;;;;1.73;0.90;;;;;;;;;;5077530;28;20040;-57
2022/06/21 02:07:22;;;;;;;2.30;1.20;;;;;;;;;;5078152;28;20048;-58
2022/06/21 02:09:55;;;;;;;3.13;0.85;;;;;;;;;;5075276;28;20462;-58
2022/06/21 02:16:07;;;;;;;1.63;1.00;;;;;;;;;;5034624;28;20112;-57
2022/06/21 02:21:33;;;;;;;1.83;1.10;;;;;;;;;;5056121;28;20036;-57
2022/06/21 02:24:28;;;;;;;1.80;0.98;;;;;;;;;;5070137;28;20107;-57
2022/06/21 02:30:44;;;;;;;2.45;1.20;;;;;;;;;;5054091;28;20036;-58
2022/06/21 02:33:30;;;;;;;1.95;1.20;;;;;;;;;;5077140;28;20032;-57
2022/06/21 02:36:18;;;;;;;3.60;1.40;;;;;;;;;;5076661;28;20060;-56
2022/06/21 02:39:10;;;;;;;2.63;1.13;;;;;;;;;;5077269;28;20078;-57
2022/06/21 02:41:51;;;;;;;1.55;0.90;;;;;;;;;;5076976;28;20032;-57
2022/06/21 02:44:40;;;;;;;3.75;1.00;;;;;;;;;;5078018;28;20446;-55
2022/06/21 02:50:23;;;;;;;1.92;0.88;;;;;;;;;;5077487;28;20067;-57
2022/06/21 02:53:08;;;;;;;;;;;;;;;;;;;;;
2022/06/21 02:58:51;;;;;;;1.88;0.98;;;;;;;;;;5069404;28;20465;-57
2022/06/21 03:01:38;;;;;;;1.60;0.88;;;;;;;;;;5079312;28;20028;-58
2022/06/21 03:04:22;;;;;;;2.00;1.13;;;;;;;;;;5079285;28;20032;-57
2022/06/21 03:07:03;;;;;;;2.58;0.93;;;;;;;;;;5097467;28;20048;-58
2022/06/21 03:09:43;;;;;;;2.47;1.20;;;;;;;;;;5097452;28;20028;-58
2022/06/21 03:12:44;;;;;;;2.40;1.27;;;;;;;;;;5094967;28;20036;-57
2022/06/21 03:18:38;;;;;;;2.40;1.38;;;;;;;;;;5051672;28;20045;-58
2022/06/21 03:24:28;;;;;;;4.65;1.33;;;;;;;;;;5054741;28;20099;-57
2022/06/21 03:30:22;;;;;;;1.85;1.08;;;;;;;;;;5050769;28;20139;-57
2022/06/21 03:33:10;;;;;;;5.05;1.60;;;;;;;;;;5052836;28;20037;-58
2022/06/21 03:35:57;;;;;;;2.90;1.35;;;;;;;;;;5019210;28;20044;-57
2022/06/21 03:44:39;;;;;;;1.88;1.08;;;;;;;;;;5094566;28;20440;-57
2022/06/21 03:53:13;;;;;;;2.25;1.20;;;;;;;;;;5031990;28;20442;-56
2022/06/21 03:56:11;;;;;;;2.65;1.85;;;;;;;;;;5016346;28;20029;-57
2022/06/21 03:59:21;;;;;;;4.45;1.80;;;;;;;;;;5083632;28;20055;-58
2022/06/21 04:02:05;;;;;;;3.65;1.48;;;;;;;;;;5092622;28;20043;-57
2022/06/21 04:07:54;;;;;;;2.42;1.58;;;;;;;;;;5042836;28;20082;-57
2022/06/21 04:10:34;;;;;;;3.55;1.52;;;;;;;;;;5075899;28;20115;-57
2022/06/21 04:13:04;;;;;;;;;;;;;;;;;;5075449;28;20089;-57
2022/06/21 04:15:35;;;;;;;2.00;0.93;;;;;;;;;;5094201;28;19904;-57
2022/06/21 04:18:32;;;;;;;3.40;1.23;;;;;;;;;;5093927;28;20020;-58
2022/06/21 04:21:20;;;;;;;7.05;1.60;;;;;;;;;;5096573;28;20024;-57
2022/06/21 04:27:46;;;;;;;;;;;;;;;;;;;;;
2022/06/21 04:30:23;;;;;;;;;;;;;;;;;;;;;
2022/06/21 04:33:20;;;;;;;2.22;1.45;;;;;;;;;;5100699;28;20095;-58
2022/06/21 04:36:21;;;;;;;2.40;1.13;;;;;;;;;;5100617;28;20020;-57
2022/06/21 04:42:31;;;;;;;3.90;1.50;;;;;;;;;;5057202;28;20125;-57
2022/06/21 04:45:25;;;;;;;1.88;1.25;;;;;;;;;;5038997;28;20025;-57
2022/06/21 04:48:15;;;;;;;2.30;1.52;;;;;;;;;;5036794;28;20489;-58
2022/06/21 04:50:53;;;;;;;1.70;0.98;;;;;;;;;;5056337;28;20146;-57
2022/06/21 04:56:17;;;;;;;2.22;1.30;;;;;;;;;;5057016;28;20547;-58
2022/06/21 04:58:47;;;;;;;1.98;1.23;;;;;;;;;;5056591;28;20033;-58
2022/06/21 05:04:30;;;;;;;2.42;1.38;;;;;;;;;;5057044;28;20044;-58
2022/06/21 05:07:26;;;;;;;;;;;;;;;;;;;;;
2022/06/21 05:10:20;;;;;;;;;;;;;;;;;;;;;
2022/06/21 05:13:11;;;;;;;2.72;1.48;;;;;;;;;;5077954;28;20119;-58
2022/06/21 05:15:39;;;;;;;2.45;1.17;;;;;;;;;;5098665;28;20032;-58
2022/06/21 05:18:46;;;;;;;2.47;1.50;;;;;;;;;;5055893;28;20029;-58
2022/06/21 05:21:43;;;;;;;5.40;2.08;;;;;;;;;;4996758;28;20366;-58
2022/06/21 05:24:41;;;;;;;4.80;1.73;;;;;;;;;;4997252;28;20030;-58
2022/06/21 05:27:46;;;;;;;2.97;1.27;;;;;;;;;;5052049;28;20362;-58
2022/06/21 05:33:50;;;;;;;;;;;;;;;;;;;;;
2022/06/21 05:36:27;;;;;;;1.73;0.90;;;;;;;;;;5034940;28;20088;-58
2022/06/21 05:39:40;;;;;;;2.47;1.35;;;;;;;;;;5055355;28;20500;-58
2022/06/21 05:51:19;;;;;;;3.92;0.85;;;;;;;;;;5097699;28;20035;-58
2022/06/21 05:57:22;;;;;;;3.92;1.42;;;;;;;;;;5035071;28;20029;-58
2022/06/21 06:00:02;;;;;;;2.80;1.48;;;;;;;;;;5018790;28;20100;-58
2022/06/21 06:03:15;;;;;;;;;;;;;;;;;;;;;
2022/06/21 06:06:07;;;;;;;2.03;1.02;;;;;;;;;;5036236;28;20112;-58
2022/06/21 06:08:58;;;;;;;4.78;1.80;;;;;;;;;;5003175;28;20040;-58
2022/06/21 06:12:08;;;;;;;1.95;1.08;;;;;;;;;;5036214;28;20040;-58
2022/06/21 06:14:56;;;;;;;2.30;1.33;;;;;;;;;;5009576;28;20506;-58
2022/06/21 06:17:43;;;;;;;1.95;1.13;;;;;;;;;;5041353;28;20060;-58
2022/06/21 06:20:23;;;;;;;2.22;1.27;;;;;;;;;;5035490;28;20038;-58
2022/06/21 06:23:08;;;;;;;3.83;1.80;;;;;;;;;;5035552;28;20036;-57
2022/06/21 06:26:08;;;;;;;4.65;1.23;;;;;;;;;;5091325;28;20092;-58
2022/06/21 06:32:15;;;;;;;2.92;1.35;;;;;;;;;;5034308;28;20045;-58
2022/06/21 06:35:02;;;;;;;2.08;1.10;;;;;;;;;;5007981;28;20040;-58
2022/06/21 06:37:37;;;;;;;3.33;1.75;;;;;;;;;;5047489;28;20123;-58
2022/06/21 06:40:24;;;;;;;2.67;1.33;;;;;;;;;;5038048;28;20030;-58
2022/06/21 06:43:28;;;;;;;;;;;;;;;;;;;;;
2022/06/21 06:46:15;;;;;;;3.97;1.50;;;;;;;;;;5054196;28;20028;-58
2022/06/21 06:48:53;;;;;;;2.80;1.63;;;;;;;;;;5054303;28;20037;-58
2022/06/21 06:54:39;;;;;;;3.20;1.60;;;;;;;;;;5038169;28;20029;-58
2022/06/21 07:00:39;;;;;;;2.70;1.63;;;;;;;;;;5052614;28;20064;-58
2022/06/21 07:03:32;;;;;;;2.88;1.58;;;;;;;;;;5053597;28;20060;-58
2022/06/21 07:06:20;;;;;;;2.78;1.20;;;;;;;;;;5053948;28;20045;-58
2022/06/21 07:08:52;;;;;;;3.22;1.77;;;;;;;;;;5054136;28;20032;-58
2022/06/21 07:11:29;;;;;;;2.85;1.33;;;;;;;;;;5054311;28;20035;-58
2022/06/21 07:14:12;;;;;;;2.10;1.25;;;;;;;;;;5053617;28;20132;-58
2022/06/21 07:16:48;;;;;;;2.22;1.05;;;;;;;;;;5036485;28;20069;-58
2022/06/21 07:19:50;;;;;;;4.90;1.50;;;;;;;;;;5054389;28;20091;-58
2022/06/21 07:22:26;;;;;;;3.22;1.83;;;;;;;;;;5048894;28;20407;-58
2022/06/21 07:25:26;;;;;;;9.20;1.52;;;;;;;;;;5042536;28;20052;-58
2022/06/21 07:28:23;;;;;;;3.53;1.40;;;;;;;;;;5053560;28;20108;-58
2022/06/21 07:34:37;;;;;;;3.50;1.45;;;;;;;;;;5065931;28;20020;-58
2022/06/21 07:37:24;;;;;;;2.00;1.30;;;;;;;;;;5074796;28;20017;-58
2022/06/21 07:39:57;;;;;;;6.60;4.13;;;;;;;;;;5074968;28;20045;-58
2022/06/21 07:42:57;;;;;;;4.43;1.77;;;;;;;;;;5103088;27;20432;-57
2022/06/21 07:45:48;;;;;;;9.32;8.00;;;;;;;;;;5072139;28;20536;-57
2022/06/21 07:48:39;;;;;;;7.60;5.28;;;;;;;;;;5054786;28;20055;-57
2022/06/21 07:54:29;;;;;;;7.93;3.05;;;;;;;;;;5062301;28;20112;-57
2022/06/21 07:57:21;;;;;;;2.42;1.50;;;;;;;;;;5071798;28;20029;-57
2022/06/21 08:00:25;;;;;;;3.35;1.67;;;;;;;;;;5070952;28;20459;-57
2022/06/21 08:08:57;;;;;;;8.55;2.25;;;;;;;;;;5071258;28;20113;-57
2022/06/21 08:14:49;;;;;;;2.20;1.30;;;;;;;;;;5071002;28;20107;-57
2022/06/21 08:17:39;;;;;;;2.60;1.35;;;;;;;;;;5070874;28;20107;-57
2022/06/21 08:20:30;;;;;;;4.22;1.80;;;;;;;;;;5070056;28;20029;-57
2022/06/21 08:29:11;;;;;;;;;;;;;;;;;;5029165;28;20403;-57
2022/06/21 08:32:09;;;;;;;5.78;1.95;;;;;;;;;;5051295;28;19904;-57
2022/06/21 08:34:57;;;;;;;2.42;1.63;;;;;;;;;;5011279;28;20356;-57
2022/06/21 08:37:35;;;;;;;4.78;1.85;;;;;;;;;;5011218;28;20419;-57
2022/06/21 08:40:24;;;;;;;2.25;1.40;;;;;;;;;;5010978;28;20423;-57
2022/06/21 08:43:15;;;;;;;6.28;2.70;;;;;;;;;;5010809;28;20050;-57
2022/06/21 08:46:03;;;;;;;4.00;1.70;;;;;;;;;;5052791;28;20041;-58
2022/06/21 08:52:15;;;;;;;2.65;1.45;;;;;;;;;;5047054;28;20554;-58
2022/06/21 08:55:07;;;;;;;3.75;1.60;;;;;;;;;;5015708;28;20487;-57
2022/06/21 09:01:20;;;;;;;2.08;1.17;;;;;;;;;;4996360;28;20049;-57
2022/06/21 09:04:23;;;;;;;5.90;1.92;;;;;;;;;;5015750;28;20125;-58
2022/06/21 09:07:07;;;;;;;2.63;1.88;;;;;;;;;;5038446;28;20068;-58
2022/06/21 09:09:52;;;;;;;7.22;3.10;;;;;;;;;;5040606;28;20104;-57
2022/06/21 09:12:45;;;;;;;10.27;2.72;;;;;;;;;;5040880;28;20125;-57
2022/06/21 09:15:30;;;;;;;363.73;237.63;;;;;;;;;;5037217;28;20121;-57
2022/06/21 09:18:27;;;;;;;87.10;58.42;;;;;;;;;;5037768;28;20463;-57
2022/06/21 09:24:07;;;;;;;;;;;;;;;;;;5015428;28;20038;-57
2022/06/21 09:27:00;;;;;;;12.00;7.70;;;;;;;;;;5014085;28;19905;-57
2022/06/21 09:29:51;;;;;;;4.82;2.08;;;;;;;;;;5015244;28;20066;-57
2022/06/21 09:32:36;;;;;;;3.38;1.67;;;;;;;;;;5014699;28;20120;-57
2022/06/21 09:38:31;;;;;;;6.95;2.17;;;;;;;;;;5035873;28;20431;-57
2022/06/21 09:44:42;;;;;;;2.88;1.92;;;;;;;;;;5043358;28;20392;-57
2022/06/21 09:47:27;;;;;;;3.28;1.48;;;;;;;;;;5037711;28;20029;-57
2022/06/21 09:51:05;;;;;;;2.05;1.33;;;;;;;;;;5037210;28;20394;-57
2022/06/21 09:56:37;;;;;;;3.60;2.13;;;;;;;;;;5036897;28;20040;-57
2022/06/21 09:59:38;;;;;;;3.92;1.52;;;;;;;;;;5036612;28;20017;-57
2022/06/21 10:02:29;;;;;;;3.35;1.70;;;;;;;;;;5035164;28;20034;-58
2022/06/21 10:05:20;;;;;;;2.95;1.40;;;;;;;;;;5034940;28;20087;-57
2022/06/21 10:08:10;;;;;;;2.40;1.88;;;;;;;;;;5037278;28;20029;-58
2022/06/21 10:14:26;;;;;;;2.92;2.00;;;;;;;;;;5033707;28;20059;-58
2022/06/21 10:17:32;;;;;;;3.72;1.60;;;;;;;;;;5036875;28;20037;-58
2022/06/21 10:23:52;;;;;;;5.10;1.50;;;;;;;;;;5003704;28;20114;-57
2022/06/21 10:30:00;;;;;;;4.65;2.17;;;;;;;;;;5031591;28;20068;-58
2022/06/21 10:36:31;;;;;;;2.58;1.83;;;;;;;;;;5035876;28;20035;-58
2022/06/21 10:39:19;;;;;;;4.88;1.80;;;;;;;;;;5035591;28;20087;-58
2022/06/21 10:45:13;;;;;;;3.85;1.85;;;;;;;;;;5035716;28;20087;-58
2022/06/21 10:47:57;;;;;;;2.72;1.73;;;;;;;;;;5035610;28;20521;-58
2022/06/21 10:50:26;;;;;;;3.88;2.50;;;;;;;;;;5036064;28;20026;-58
2022/06/21 10:53:18;;;;;;;3.33;2.15;;;;;;;;;;5034397;28;20037;-58
2022/06/21 11:05:31;;;;;;;4.65;2.30;;;;;;;;;;5035172;28;20543;-57
2022/06/21 11:08:16;;;;;;;3.85;2.00;;;;;;;;;;5034037;28;20120;-58
2022/06/21 11:10:56;;;;;;;2.50;1.80;;;;;;;;;;5035366;28;20033;-58
2022/06/21 11:13:59;;;;;;;;;;;;;;;;;;;;;
2022/06/21 11:17:02;;;;;;;4.93;2.33;;;;;;;;;;4993709;28;20455;-58
2022/06/21 11:19:55;;;;;;;6.30;2.63;;;;;;;;;;4998381;28;20065;-58
2022/06/21 11:22:57;;;;;;;3.30;1.73;;;;;;;;;;5033764;28;20025;-58
2022/06/21 11:25:45;;;;;;;3.13;2.20;;;;;;;;;;5036207;28;20136;-58
2022/06/21 11:31:41;;;;;;;5.50;2.55;;;;;;;;;;5033318;28;20092;-58
2022/06/21 11:34:25;;;;;;;5.53;2.30;;;;;;;;;;5033724;28;20025;-58
2022/06/21 11:37:28;;;;;;;3.58;1.67;;;;;;;;;;5033663;28;20037;-58
2022/06/21 11:40:22;;;;;;;5.82;2.70;;;;;;;;;;5035187;28;20022;-58
2022/06/21 11:43:17;;;;;;;3.00;2.38;;;;;;;;;;5034076;28;20050;-59
2022/06/21 11:45:54;;;;;;;3.40;2.03;;;;;;;;;;5034105;28;20129;-59
2022/06/21 11:48:58;;;;;;;5.57;2.63;;;;;;;;;;5034226;28;20034;-60
2022/06/21 11:51:50;;;;;;;4.88;2.53;;;;;;;;;;4993528;28;20034;-59
2022/06/21 11:54:39;;;;;;;4.70;3.10;;;;;;;;;;5007840;28;20050;-57
2022/06/21 11:57:28;;;;;;;3.30;2.22;;;;;;;;;;5015418;28;20029;-57
2022/06/21 12:00:12;;;;;;;4.43;2.80;;;;;;;;;;5035575;28;20040;-57
2022/06/21 12:05:59;;;;;;;5.72;2.65;;;;;;;;;;5034274;28;20442;-59
2022/06/21 12:08:37;;;;;;;3.67;2.97;;;;;;;;;;5032954;28;20038;-58
2022/06/21 12:11:22;;;;;;;4.28;2.60;;;;;;;;;;5033668;28;20106;-58
2022/06/21 12:14:16;;;;;;;3.60;2.72;;;;;;;;;;5033981;28;20033;-58
2022/06/21 12:16:46;;;;;;;3.13;2.35;;;;;;;;;;5033512;28;20120;-58
2022/06/21 12:19:32;;;;;;;3.33;2.33;;;;;;;;;;5033727;28;20022;-58
2022/06/21 12:22:18;;;;;;;4.68;3.33;;;;;;;;;;5033555;28;20033;-60
2022/06/21 12:27:47;;;;;;;5.88;3.63;;;;;;;;;;5023587;28;20026;-58
2022/06/21 12:30:55;;;;;;;4.43;2.80;;;;;;;;;;5035798;28;20029;-58
2022/06/21 12:33:47;;;;;;;;;;;;;;;;;;;;;
2022/06/21 12:36:28;;;;;;;5.28;3.40;;;;;;;;;;5036267;28;20033;-58
2022/06/21 12:39:25;;;;;;;4.05;2.58;;;;;;;;;;5036889;28;20033;-58
2022/06/21 12:42:14;;;;;;;4.63;2.67;;;;;;;;;;5036487;28;20052;-58
2022/06/21 12:45:13;;;;;;;5.03;2.58;;;;;;;;;;5037474;28;20053;-58
2022/06/21 12:48:08;;;;;;;6.88;2.72;;;;;;;;;;5036000;28;20045;-58
2022/06/21 12:51:11;;;;;;;4.53;2.50;;;;;;;;;;5037310;28;20032;-58
2022/06/21 12:57:19;;;;;;;4.97;3.45;;;;;;;;;;5033894;28;20029;-58
2022/06/21 13:00:07;;;;;;;;;;;;;;;;;;;;;
2022/06/21 13:02:53;;;;;;;5.07;3.78;;;;;;;;;;5036601;28;20025;-58
2022/06/21 13:05:50;;;;;;;5.10;3.22;;;;;;;;;;5036757;28;20026;-58
2022/06/21 13:08:33;;;;;;;4.38;3.30;;;;;;;;;;5036402;28;20076;-58
2022/06/21 13:11:24;;;;;;;6.78;2.67;;;;;;;;;;5036762;28;20484;-58
2022/06/21 13:14:07;;;;;;;3.38;2.90;;;;;;;;;;5037480;28;20044;-58
2022/06/21 13:16:58;;;;;;;3.75;2.50;;;;;;;;;;5037356;28;20526;-58
2022/06/21 13:19:33;;;;;;;3.88;2.58;;;;;;;;;;5035123;28;20052;-58
2022/06/21 13:22:16;;;;;;;5.65;3.45;;;;;;;;;;5035978;28;20088;-58
2022/06/21 13:25:16;;;;;;;;;;;;;;;;;;;;;
2022/06/21 13:30:50;;;;;;;3.92;2.97;;;;;;;;;;5033630;28;20033;-58
2022/06/21 13:33:40;;;;;;;5.40;3.60;;;;;;;;;;5036816;28;20438;-58
2022/06/21 13:36:55;;;;;;;3.75;3.00;;;;;;;;;;5036311;28;20436;-58
2022/06/21 13:39:48;;;;;;;4.93;3.35;;;;;;;;;;5010838;28;20034;-58
2022/06/21 13:48:29;;;;;;;4.10;2.92;;;;;;;;;;4994623;28;20422;-58
2022/06/21 13:54:38;;;;;;;6.82;3.03;;;;;;;;;;4987972;28;20546;-58
2022/06/21 13:57:26;;;;;;;5.05;3.63;;;;;;;;;;4994982;28;20397;-58
2022/06/21 14:00:31;;;;;;;3.78;2.97;;;;;;;;;;4994245;28;20043;-58
2022/06/21 14:03:26;;;;;;;;;;;;;;;;;;;;;
2022/06/21 14:06:22;;;;;;;6.63;3.85;;;;;;;;;;4994894;28;20118;-58
2022/06/21 14:09:08;;;;;;;3.92;3.17;;;;;;;;;;4992973;28;20045;-58
2022/06/21 14:11:55;;;;;;;4.30;3.07;;;;;;;;;;5035855;28;20040;-58
2022/06/21 14:14:51;;;;;;;4.43;3.55;;;;;;;;;;5034077;28;20277;-58
2022/06/21 14:17:41;;;;;;;4.63;3.15;;;;;;;;;;5035511;28;20359;-58
2022/06/21 14:23:20;;;;;;;4.13;3.55;;;;;;;;;;5023800;28;20034;-59
2022/06/21 14:26:02;;;;;;;6.38;3.20;;;;;;;;;;5036292;28;20485;-59
2022/06/21 14:31:45;;;;;;;8.05;4.18;;;;;;;;;;5012878;28;20074;-58
2022/06/21 14:34:32;;;;;;;3.60;3.00;;;;;;;;;;5016662;28;20068;-59
2022/06/21 14:37:29;;;;;;;5.72;3.78;;;;;;;;;;5033979;28;20025;-59
2022/06/21 14:40:18;;;;;;;3.67;3.30;;;;;;;;;;5035124;28;20037;-58
2022/06/21 14:43:05;;;;;;;7.00;3.37;;;;;;;;;;5013145;28;20406;-59
2022/06/21 14:45:36;;;;;;;5.05;3.80;;;;;;;;;;5033136;28;20128;-59
2022/06/21 14:48:39;;;;;;;4.93;3.85;;;;;;;;;;5034871;28;20036;-59
2022/06/21 14:51:24;;;;;;;3.92;3.42;;;;;;;;;;5033719;28;20025;-59
2022/06/21 14:54:13;;;;;;;4.15;3.67;;;;;;;;;;5034183;28;20078;-59
2022/06/21 14:57:03;;;;;;;5.83;3.67;;;;;;;;;;5008865;28;20030;-59
2022/06/21 14:59:47;;;;;;;4.95;4.18;;;;;;;;;;4992602;28;20490;-59
2022/06/21 15:02:38;;;;;;;4.93;3.42;;;;;;;;;;4992592;28;20042;-58
2022/06/21 15:15:09;;;;;;;3.30;3.00;;;;;;;;;;5021499;28;20040;-59
2022/06/21 15:17:57;;;;;;;5.05;3.60;;;;;;;;;;5034525;28;20367;-59
2022/06/21 15:20:39;;;;;;;4.72;3.33;;;;;;;;;;5034094;28;20025;-59
2022/06/21 15:23:26;;;;;;;4.72;3.53;;;;;;;;;;5033310;28;20104;-59
2022/06/21 15:28:47;;;;;;;4.57;3.40;;;;;;;;;;5033466;28;20028;-58
2022/06/21 15:34:45;;;;;;;6.05;4.20;;;;;;;;;;5021603;28;20033;-59
2022/06/21 15:37:52;;;;;;;6.43;3.78;;;;;;;;;;5034308;28;20029;-59
2022/06/21 15:43:37;;;;;;;4.45;3.25;;;;;;;;;;4973891;28;20055;-59
2022/06/21 15:46:40;;;;;;;3.45;2.65;;;;;;;;;;5027601;28;20052;-59
2022/06/21 15:52:35;;;;;;;;;;;;;;;;;;;;;
2022/06/21 15:55:14;;;;;;;5.22;3.67;;;;;;;;;;5031731;28;20036;-59
2022/06/21 15:57:59;;;;;;;4.88;3.85;;;;;;;;;;5032747;28;20044;-59
2022/06/21 16:06:50;;;;;;;3.70;3.08;;;;;;;;;;5034579;28;20036;-59
2022/06/21 16:09:18;;;;;;;3.88;3.42;;;;;;;;;;5038565;28;20029;-59
2022/06/21 16:11:55;;;;;;;3.60;3.28;;;;;;;;;;5037815;28;20104;-59
2022/06/21 16:14:34;;;;;;;4.45;3.30;;;;;;;;;;5037444;28;20033;-59
2022/06/21 16:20:04;;;;;;;5.90;3.70;;;;;;;;;;5039514;28;20113;-59
2022/06/21 16:23:13;;;;;;;3.40;3.10;;;;;;;;;;5036778;28;20131;-59
2022/06/21 16:25:54;;;;;;;5.30;3.72;;;;;;;;;;5039780;28;20090;-59
2022/06/21 16:28:52;;;;;;;4.40;3.47;;;;;;;;;;5036817;28;20045;-59
2022/06/21 16:43:24;;;;;;;8.27;3.40;;;;;;;;;;5037342;28;20103;-59
2022/06/21 16:46:10;;;;;;;3.60;2.88;;;;;;;;;;5016841;28;20042;-59
2022/06/21 16:49:01;;;;;;;4.82;3.72;;;;;;;;;;5015733;28;20030;-59
2022/06/21 16:51:44;;;;;;;4.00;3.38;;;;;;;;;;5017202;28;20033;-59
2022/06/21 16:54:30;;;;;;;8.10;3.75;;;;;;;;;;5017770;28;20109;-59
2022/06/21 16:57:07;;;;;;;4.68;3.92;;;;;;;;;;5017665;28;20033;-59
2022/06/21 17:03:25;;;;;;;6.28;4.05;;;;;;;;;;5014526;28;20045;-59
2022/06/21 17:06:06;;;;;;;3.30;3.00;;;;;;;;;;5017427;28;20049;-59
2022/06/21 17:12:03;;;;;;;5.55;3.95;;;;;;;;;;5015051;28;20038;-59
2022/06/21 17:14:50;;;;;;;4.40;3.33;;;;;;;;;;5016061;28;20030;-59
2022/06/21 17:17:35;;;;;;;5.18;3.65;;;;;;;;;;5014773;28;20076;-59
2022/06/21 17:20:02;;;;;;;6.55;3.47;;;;;;;;;;5015332;28;20104;-59
2022/06/21 17:22:37;;;;;;;4.80;3.80;;;;;;;;;;5014183;28;20120;-59
2022/06/21 17:28:15;;;;;;;4.25;3.70;;;;;;;;;;5015584;28;20038;-59
2022/06/21 17:31:04;;;;;;;6.28;5.68;;;;;;;;;;5015994;28;20026;-59
2022/06/21 17:33:53;;;;;;;8.35;4.10;;;;;;;;;;5005340;28;20037;-59
2022/06/21 17:36:43;;;;;;;5.50;3.58;;;;;;;;;;5015923;28;20034;-59
2022/06/21 17:39:47;;;;;;;6.28;3.80;;;;;;;;;;5015506;28;20034;-59
2022/06/21 17:42:35;;;;;;;5.75;3.88;;;;;;;;;;5012171;28;20068;-59
2022/06/21 17:45:31;;;;;;;4.03;3.05;;;;;;;;;;5027368;28;20064;-59
2022/06/21 17:48:10;;;;;;;5.43;4.13;;;;;;;;;;5036071;28;20097;-59
2022/06/21 17:51:04;;;;;;;4.28;3.60;;;;;;;;;;5035414;28;20541;-59
2022/06/21 17:53:41;;;;;;;5.00;4.00;;;;;;;;;;5036022;28;20493;-59
2022/06/21 17:56:20;;;;;;;14.93;13.35;;;;;;;;;;5036257;28;20417;-59
2022/06/21 18:02:02;;;;;;;5.03;3.55;;;;;;;;;;5031349;28;20030;-59
2022/06/21 18:04:46;;;;;;;6.13;4.07;;;;;;;;;;5035801;28;20032;-59
2022/06/21 18:07:18;;;;;;;9.10;4.07;;;;;;;;;;5036262;28;20017;-59
2022/06/21 18:10:17;;;;;;;5.82;3.92;;;;;;;;;;5034110;28;20045;-58
2022/06/21 18:12:57;;;;;;;6.38;3.50;;;;;;;;;;4993555;28;20527;-58
2022/06/21 18:15:45;;;;;;;;;;;;;;;;;;4994761;28;20072;-58
2022/06/21 18:18:19;;;;;;;4.05;3.65;;;;;;;;;;5009580;28;19906;-58
2022/06/21 18:21:01;;;;;;;5.07;3.97;;;;;;;;;;4993026;28;20070;-58
2022/06/21 18:23:51;;;;;;;4.88;3.88;;;;;;;;;;5031141;28;20108;-59
2022/06/21 18:26:35;;;;;;;5.90;3.60;;;;;;;;;;5034467;28;20025;-59
2022/06/21 18:29:33;;;;;;;4.05;3.22;;;;;;;;;;5034994;28;20406;-59
2022/06/21 18:32:43;;;;;;;8.98;4.10;;;;;;;;;;5062467;28;20418;-59
2022/06/21 18:35:25;;;;;;;5.43;4.28;;;;;;;;;;5035389;28;20060;-59
2022/06/21 18:38:08;;;;;;;5.35;3.42;;;;;;;;;;5034154;28;20111;-59
2022/06/21 18:43:50;;;;;;;4.00;3.60;;;;;;;;;;5034992;28;20202;-59
2022/06/21 18:46:41;;;;;;;4.65;4.13;;;;;;;;;;5032213;28;20095;-59
2022/06/21 18:52:24;;;;;;;5.13;4.63;;;;;;;;;;5012239;28;20217;-60
2022/06/21 18:58:15;;;;;;;4.80;4.32;;;;;;;;;;5034276;28;20116;-59
2022/06/21 19:00:58;;;;;;;5.30;4.40;;;;;;;;;;5034737;28;20038;-59
2022/06/21 19:04:14;;;;;;;4.90;3.70;;;;;;;;;;5033181;28;20106;-59
2022/06/21 19:10:06;;;;;;;4.70;4.25;;;;;;;;;;5034188;28;20037;-59
2022/06/21 19:12:51;;;;;;;5.28;4.63;;;;;;;;;;5034803;28;20030;-59
2022/06/21 19:15:37;;;;;;;5.90;4.90;;;;;;;;;;5032385;28;20029;-59
2022/06/21 19:18:30;;;;;;;8.05;4.13;;;;;;;;;;5034794;28;20022;-60
2022/06/21 19:21:01;;;;;;;6.32;4.57;;;;;;;;;;5033689;28;20541;-59
2022/06/21 19:23:47;;;;;;;4.93;4.35;;;;;;;;;;5032937;28;20049;-59
2022/06/21 19:26:44;;;;;;;5.88;4.07;;;;;;;;;;5032081;28;20041;-59
2022/06/21 19:29:56;;;;;;;8.55;4.50;;;;;;;;;;4997751;28;20052;-59
2022/06/21 19:32:43;;;;;;;6.40;4.13;;;;;;;;;;4992336;28;20062;-59
2022/06/21 19:35:43;;;;;;;6.00;4.60;;;;;;;;;;4992175;28;20080;-59
2022/06/21 19:38:24;;;;;;;4.43;4.03;;;;;;;;;;5030156;28;20082;-59
2022/06/21 19:41:18;;;;;;;7.95;4.55;;;;;;;;;;5034447;28;20087;-59
2022/06/21 19:44:12;;;;;;;5.53;4.95;;;;;;;;;;5033361;28;20037;-60
2022/06/21 19:46:55;;;;;;;6.18;4.47;;;;;;;;;;5032154;28;20099;-59
2022/06/21 19:49:33;;;;;;;5.28;4.15;;;;;;;;;;5032652;28;20501;-59
2022/06/21 19:55:19;;;;;;;4.70;3.97;;;;;;;;;;5030425;28;20398;-59
2022/06/21 20:01:18;;;;;;;4.75;4.25;;;;;;;;;;5031520;28;20030;-59
2022/06/21 20:04:05;;;;;;;6.13;4.30;;;;;;;;;;5032375;28;20383;-58
2022/06/21 20:06:58;;;;;;;4.63;3.55;;;;;;;;;;5033548;28;20037;-59
2022/06/21 20:09:54;;;;;;;6.53;3.58;;;;;;;;;;5033100;28;20115;-59
2022/06/21 20:12:40;;;;;;;4.53;4.00;;;;;;;;;;5012855;28;20034;-59
2022/06/21 20:18:44;;;;;;;4.00;3.60;;;;;;;;;;5029281;28;20025;-59
2022/06/21 20:21:32;;;;;;;6.10;4.90;;;;;;;;;;5033769;28;20367;-59
2022/06/21 20:24:23;;;;;;;4.05;3.65;;;;;;;;;;5033666;28;20029;-58
2022/06/21 20:27:11;;;;;;;6.18;4.60;;;;;;;;;;5033161;28;20025;-59
2022/06/21 20:30:15;;;;;;;7.00;4.47;;;;;;;;;;5033227;28;20417;-59
2022/06/21 20:33:00;;;;;;;8.15;3.80;;;;;;;;;;5033138;28;20034;-58
2022/06/21 20:35:50;;;;;;;7.75;3.67;;;;;;;;;;5032158;28;20022;-58
2022/06/21 20:38:19;;;;;;;;;;;;;;;;;;5033003;28;20030;-58
2022/06/21 20:41:06;;;;;;;5.20;3.30;;;;;;;;;;5033342;28;19905;-58
2022/06/21 20:44:16;;;;;;;6.47;3.67;;;;;;;;;;5033846;28;20018;-58
2022/06/21 20:49:37;;;;;;;4.70;3.88;;;;;;;;;;5035670;28;20148;-58
2022/06/21 20:52:22;;;;;;;5.03;4.53;;;;;;;;;;5034875;28;20048;-58
2022/06/21 20:55:20;;;;;;;4.57;3.55;;;;;;;;;;5036772;28;20036;-58
2022/06/21 21:01:16;;;;;;;3.78;3.13;;;;;;;;;;5013905;28;20037;-58
2022/06/21 21:04:05;;;;;;;7.60;4.10;;;;;;;;;;5036691;28;20025;-58
2022/06/21 21:07:21;;;;;;;7.22;4.60;;;;;;;;;;5031526;28;20030;-58
2022/06/21 21:13:16;;;;;;;4.35;3.60;;;;;;;;;;5036276;28;20143;-58
2022/06/21 21:16:05;;;;;;;4.75;3.80;;;;;;;;;;5036205;28;20045;-58
2022/06/21 21:18:47;;;;;;;4.97;3.08;;;;;;;;;;5036123;28;20038;-59
2022/06/21 21:21:36;;;;;;;5.57;3.88;;;;;;;;;;5035679;28;20116;-58
2022/06/21 21:24:21;;;;;;;4.15;3.75;;;;;;;;;;5031145;28;20030;-59
2022/06/21 21:30:22;;;;;;;4.80;3.97;;;;;;;;;;5015761;28;20033;-58
2022/06/21 21:36:08;;;;;;;5.63;3.33;;;;;;;;;;5013932;28;20089;-58
2022/06/21 21:39:04;;;;;;;5.03;4.53;;;;;;;;;;5036155;28;20034;-58
2022/06/21 21:42:00;;;;;;;4.82;4.32;;;;;;;;;;5036771;28;20022;-58
2022/06/21 21:44:51;;;;;;;4.40;3.38;;;;;;;;;;5036880;28;20117;-58
2022/06/21 21:47:37;;;;;;;4.78;4.28;;;;;;;;;;5034426;28;20098;-58
2022/06/21 21:50:32;;;;;;;5.85;4.00;;;;;;;;;;5029541;28;20033;-58
2022/06/21 21:53:25;;;;;;;5.40;4.38;;;;;;;;;;5034683;28;20471;-58
2022/06/21 21:56:09;;;;;;;4.50;3.65;;;;;;;;;;5064517;28;20125;-59
2022/06/21 21:58:41;;;;;;;5.65;4.10;;;;;;;;;;5035677;28;20374;-59
2022/06/21 22:01:30;;;;;;;4.78;3.75;;;;;;;;;;5035558;28;20033;-58